Time;durP1;ratioP1;P1;durP2;ratioP2;P2;SDS_P1;SDS_P2;PMS_P1;PMS_P2;Temp;Humidity;BMP_temperature;BMP_pressure;BME280_temperature;BME280_humidity;BME280_pressure;Samples;Min_cycle;Max_cycle;Signal;HPM_P1;HPM_P2
2023/04/19 00:01:22;;;;;;;6.03;3.00;;;8.30;99.90;;;;;;5140796;27;20436;-55
2023/04/19 00:03:49;;;;;;;4.50;2.57;;;8.30;99.90;;;;;;5140569;27;20444;-59
2023/04/19 00:06:17;;;;;;;3.80;3.10;;;8.30;99.90;;;;;;5140134;27;20490;-57
2023/04/19 00:08:44;;;;;;;5.97;3.07;;;8.30;99.90;;;;;;5140736;27;20444;-59
2023/04/19 00:11:11;;;;;;;3.67;2.23;;;8.30;99.90;;;;;;5139692;27;20522;-57
2023/04/19 00:13:38;;;;;;;3.63;2.50;;;8.30;99.90;;;;;;5140539;27;20543;-59
2023/04/19 00:16:06;;;;;;;3.47;2.60;;;8.30;99.90;;;;;;5140641;27;20530;-59
2023/04/19 00:18:33;;;;;;;3.20;2.20;;;8.30;99.90;;;;;;5140122;27;20546;-56
2023/04/19 00:21:01;;;;;;;10.03;3.40;;;8.30;99.90;;;;;;5139936;27;20735;-58
2023/04/19 00:23:29;;;;;;;4.90;2.20;;;8.20;99.90;;;;;;5139921;27;20861;-57
2023/04/19 00:25:56;;;;;;;8.80;2.27;;;8.20;99.90;;;;;;5139867;27;20499;-56
2023/04/19 00:28:23;;;;;;;4.07;2.30;;;8.20;99.90;;;;;;5139570;27;20566;-56
2023/04/19 00:30:50;;;;;;;2.50;2.17;;;8.20;99.90;;;;;;5140219;27;20483;-59
2023/04/19 00:33:17;;;;;;;6.13;2.33;;;8.20;99.90;;;;;;5139895;27;20502;-58
2023/04/19 00:35:44;;;;;;;8.87;3.00;;;8.30;99.90;;;;;;5140568;27;20482;-58
2023/04/19 00:38:10;;;;;;;3.87;2.30;;;8.30;99.90;;;;;;5139727;27;20541;-57
2023/04/19 00:40:39;;;;;;;3.33;2.27;;;8.20;99.90;;;;;;5139506;27;20511;-55
2023/04/19 00:43:06;;;;;;;2.53;2.10;;;8.30;99.90;;;;;;5139606;27;20470;-59
2023/04/19 00:45:35;;;;;;;4.23;2.33;;;8.30;99.90;;;;;;5139566;27;20434;-57
2023/04/19 00:48:02;;;;;;;5.60;2.37;;;8.30;99.90;;;;;;5139352;27;20452;-57
2023/04/19 00:50:29;;;;;;;2.50;2.30;;;8.30;99.90;;;;;;5140241;27;20459;-57
2023/04/19 00:52:56;;;;;;;10.93;3.07;;;8.30;99.90;;;;;;5139697;27;20839;-58
2023/04/19 00:55:24;;;;;;;5.33;2.40;;;8.30;99.90;;;;;;5139841;27;20745;-59
2023/04/19 00:57:52;;;;;;;4.17;2.13;;;8.30;99.90;;;;;;5140044;27;20436;-58
2023/04/19 01:00:19;;;;;;;4.27;2.30;;;8.30;99.90;;;;;;5139191;27;20527;-59
2023/04/19 01:02:47;;;;;;;11.60;2.87;;;8.20;99.90;;;;;;5140027;27;20802;-57
2023/04/19 01:05:14;;;;;;;3.23;2.00;;;8.20;99.90;;;;;;5139263;27;20448;-58
2023/04/19 01:07:42;;;;;;;3.97;2.20;;;8.20;99.90;;;;;;5139470;27;20444;-57
2023/04/19 01:10:09;;;;;;;9.00;3.03;;;8.20;99.90;;;;;;5139106;27;20538;-60
2023/04/19 01:12:36;;;;;;;8.00;2.43;;;8.20;99.90;;;;;;5139602;27;20518;-57
2023/04/19 01:15:06;;;;;;;4.30;2.30;;;8.20;99.90;;;;;;5139663;27;20527;-59
2023/04/19 01:17:33;;;;;;;4.47;2.50;;;8.10;99.90;;;;;;5139534;27;20475;-59
2023/04/19 01:20:01;;;;;;;2.87;2.17;;;8.10;99.90;;;;;;5139260;27;20840;-58
2023/04/19 01:22:30;;;;;;;3.73;2.03;;;8.00;99.90;;;;;;5138824;27;20475;-56
2023/04/19 01:24:58;;;;;;;3.10;2.60;;;7.90;99.90;;;;;;5138985;27;20524;-53
2023/04/19 01:27:25;;;;;;;3.80;2.17;;;7.90;99.90;;;;;;5139217;27;20459;-58
2023/04/19 01:29:52;;;;;;;7.33;2.23;;;7.90;99.90;;;;;;5139282;28;20550;-56
2023/04/19 01:32:19;;;;;;;2.73;2.13;;;7.90;99.90;;;;;;5138308;28;20567;-57
2023/04/19 01:34:45;;;;;;;4.53;2.20;;;7.90;99.90;;;;;;5138418;28;20571;-56
2023/04/19 01:37:12;;;;;;;4.30;2.47;;;7.80;99.90;;;;;;5139836;28;20471;-58
2023/04/19 01:39:41;;;;;;;8.67;2.50;;;7.80;99.90;;;;;;5138926;28;20510;-58
2023/04/19 01:42:07;;;;;;;3.50;2.40;;;7.70;99.90;;;;;;5138325;28;20839;-57
2023/04/19 01:44:34;;;;;;;2.90;2.10;;;7.70;99.90;;;;;;5138982;28;20555;-58
2023/04/19 01:47:01;;;;;;;6.57;2.67;;;7.60;99.90;;;;;;5139160;28;20424;-57
2023/04/19 01:49:28;;;;;;;7.90;2.30;;;7.60;99.90;;;;;;5138839;28;20503;-56
2023/04/19 01:51:55;;;;;;;6.90;2.43;;;7.50;99.90;;;;;;5139390;28;20563;-56
2023/04/19 01:54:22;;;;;;;8.90;2.60;;;7.40;99.90;;;;;;5138591;28;20530;-53
2023/04/19 01:56:50;;;;;;;2.40;1.90;;;7.40;99.90;;;;;;5139247;28;20507;-54
2023/04/19 01:59:17;;;;;;;3.73;2.30;;;7.40;99.90;;;;;;5138982;28;20494;-58
2023/04/19 02:01:46;;;;;;;4.23;1.87;;;7.40;99.90;;;;;;5139027;28;20482;-56
2023/04/19 02:04:13;;;;;;;5.90;2.43;;;7.30;99.90;;;;;;5139507;28;20447;-56
2023/04/19 02:06:40;;;;;;;2.90;2.47;;;7.30;99.90;;;;;;5139242;28;20519;-55
2023/04/19 02:09:08;;;;;;;3.87;2.67;;;7.30;99.90;;;;;;5139561;28;20518;-57
2023/04/19 02:11:35;;;;;;;6.53;2.67;;;7.20;99.90;;;;;;5139064;28;20945;-57
2023/04/19 02:14:03;;;;;;;10.10;2.90;;;7.20;99.90;;;;;;5139339;28;20539;-57
2023/04/19 02:16:30;;;;;;;3.23;2.40;;;7.10;99.90;;;;;;5139172;28;20498;-58
2023/04/19 02:18:57;;;;;;;4.03;2.70;;;7.10;99.90;;;;;;5139870;28;20486;-57
2023/04/19 02:21:24;;;;;;;4.13;2.77;;;7.00;99.90;;;;;;5139130;28;20455;-57
2023/04/19 02:23:51;;;;;;;6.40;2.40;;;7.00;99.90;;;;;;5138418;28;20975;-57
2023/04/19 02:26:19;;;;;;;2.73;1.90;;;7.00;99.90;;;;;;5139193;28;20518;-58
2023/04/19 02:28:46;;;;;;;2.83;2.33;;;7.00;99.90;;;;;;5139233;28;20455;-57
2023/04/19 02:31:14;;;;;;;3.80;2.47;;;6.90;99.90;;;;;;5139157;28;20498;-57
2023/04/19 02:33:41;;;;;;;3.00;2.17;;;6.80;99.90;;;;;;5139430;28;20548;-58
2023/04/19 02:36:11;;;;;;;6.90;2.40;;;6.80;99.90;;;;;;5141885;27;20550;-59
2023/04/19 02:38:38;;;;;;;4.73;2.70;;;6.80;99.90;;;;;;5142802;27;20436;-58
2023/04/19 02:41:05;;;;;;;3.00;2.23;;;6.70;99.90;;;;;;5143148;27;20498;-59
2023/04/19 02:43:32;;;;;;;5.80;2.50;;;6.70;99.90;;;;;;5142961;27;20435;-57
2023/04/19 02:45:58;;;;;;;3.60;2.60;;;6.70;99.90;;;;;;5142429;27;20526;-59
2023/04/19 02:48:27;;;;;;;7.70;2.40;;;6.70;99.90;;;;;;5142837;27;20523;-58
2023/04/19 02:50:54;;;;;;;6.00;2.70;;;6.60;99.90;;;;;;5142353;27;20471;-58
2023/04/19 02:53:21;;;;;;;5.03;3.00;;;6.60;99.90;;;;;;5142601;27;21086;-57
2023/04/19 02:55:48;;;;;;;9.67;2.10;;;6.60;99.90;;;;;;5142440;27;20454;-56
2023/04/19 02:58:15;;;;;;;5.20;2.50;;;6.60;99.90;;;;;;5142046;27;20476;-58
2023/04/19 03:00:42;;;;;;;5.60;2.30;;;6.60;99.90;;;;;;5142524;27;20518;-54
2023/04/19 03:03:08;;;;;;;6.03;2.03;;;6.60;99.90;;;;;;5143066;27;20436;-58
2023/04/19 03:05:37;;;;;;;3.90;2.30;;;6.50;99.90;;;;;;5142666;27;20447;-59
2023/04/19 03:08:10;;;;;;;4.07;2.53;;;6.50;99.90;;;;;;5142650;27;20923;-59
2023/04/19 03:10:37;;;;;;;4.07;2.83;;;6.50;99.90;;;;;;5142432;27;20436;-58
2023/04/19 03:13:04;;;;;;;5.23;2.23;;;6.40;99.90;;;;;;5142172;27;20566;-58
2023/04/19 03:15:31;;;;;;;4.23;2.53;;;6.40;99.90;;;;;;5142167;27;20479;-58
2023/04/19 03:17:58;;;;;;;4.17;2.20;;;6.40;99.90;;;;;;5141998;27;20522;-57
2023/04/19 03:20:25;;;;;;;4.20;2.00;;;6.40;99.90;;;;;;5142745;27;20527;-57
2023/04/19 03:22:53;;;;;;;6.17;2.13;;;6.40;99.90;;;;;;5142806;27;20489;-57
2023/04/19 03:25:20;;;;;;;3.53;1.90;;;6.40;99.90;;;;;;5141922;27;20440;-54
2023/04/19 03:27:48;;;;;;;4.03;1.80;;;6.40;99.90;;;;;;5141545;27;20760;-58
2023/04/19 03:30:15;;;;;;;3.30;2.13;;;6.30;99.90;;;;;;5142192;27;20439;-56
2023/04/19 03:32:42;;;;;;;7.80;3.53;;;6.40;99.90;;;;;;5141673;27;20555;-57
2023/04/19 03:35:10;;;;;;;2.70;1.83;;;6.40;99.90;;;;;;5142490;27;20519;-58
2023/04/19 03:37:36;;;;;;;2.33;1.80;;;6.30;99.90;;;;;;5141875;27;20868;-58
2023/04/19 03:40:05;;;;;;;4.23;2.40;;;6.30;99.90;;;;;;5141974;27;20526;-51
2023/04/19 03:42:32;;;;;;;6.90;2.00;;;6.30;99.90;;;;;;5142167;27;20546;-58
2023/04/19 03:44:59;;;;;;;6.30;1.93;;;6.30;99.90;;;;;;5142330;27;20434;-55
2023/04/19 03:47:26;;;;;;;2.40;1.60;;;6.20;99.90;;;;;;5141878;27;20448;-57
2023/04/19 03:49:53;;;;;;;2.23;2.00;;;6.20;99.90;;;;;;5142589;27;20923;-59
2023/04/19 03:52:20;;;;;;;4.97;1.80;;;6.20;99.90;;;;;;5141645;27;20479;-57
2023/04/19 03:54:46;;;;;;;5.70;2.20;;;6.20;99.90;;;;;;5142225;27;20959;-57
2023/04/19 03:57:16;;;;;;;2.90;1.97;;;6.10;99.90;;;;;;5141277;27;20530;-58
2023/04/19 03:59:43;;;;;;;3.10;1.67;;;6.10;99.90;;;;;;5141932;27;20916;-55
2023/04/19 04:02:10;;;;;;;3.40;2.00;;;6.10;99.90;;;;;;5141861;27;20923;-54
2023/04/19 04:04:37;;;;;;;4.00;2.10;;;6.10;99.90;;;;;;5141638;27;20444;-58
2023/04/19 04:07:03;;;;;;;6.07;1.80;;;6.10;99.90;;;;;;5142040;27;20586;-56
2023/04/19 04:09:30;;;;;;;2.10;1.67;;;6.10;99.90;;;;;;5141854;27;20440;-53
2023/04/19 04:11:57;;;;;;;2.53;2.33;;;6.10;99.90;;;;;;5142026;27;20494;-51
2023/04/19 04:14:26;;;;;;;4.80;1.70;;;6.10;99.90;;;;;;5141750;27;20459;-59
2023/04/19 04:16:52;;;;;;;3.93;1.87;;;6.00;99.90;;;;;;5142021;27;20471;-59
2023/04/19 04:19:20;;;;;;;6.20;1.60;;;6.00;99.90;;;;;;5141921;27;20467;-57
2023/04/19 04:21:47;;;;;;;3.20;1.70;;;6.00;99.90;;;;;;5141917;27;20448;-55
2023/04/19 04:24:14;;;;;;;3.43;1.90;;;5.90;99.90;;;;;;5141296;27;20476;-58
2023/04/19 04:26:41;;;;;;;5.10;2.87;;;6.00;99.90;;;;;;5141732;27;20526;-59
2023/04/19 04:29:08;;;;;;;3.20;1.80;;;6.00;99.90;;;;;;5141230;27;20464;-59
2023/04/19 04:31:37;;;;;;;3.50;2.73;;;6.00;99.90;;;;;;5142167;27;20467;-59
2023/04/19 04:34:03;;;;;;;2.10;1.63;;;6.00;99.90;;;;;;5141733;27;20468;-59
2023/04/19 04:36:30;;;;;;;8.90;2.20;;;6.00;99.90;;;;;;5142246;27;20443;-56
2023/04/19 04:39:00;;;;;;;4.10;1.63;;;6.00;99.90;;;;;;5141780;27;20499;-57
2023/04/19 04:41:30;;;;;;;2.50;2.30;;;6.00;99.90;;;;;;5141644;27;20443;-54
2023/04/19 04:43:57;;;;;;;3.20;1.87;;;4.90;99.90;;;;;;5140640;27;20468;-57
2023/04/19 04:46:24;;;;;;;4.30;1.67;;;6.00;99.90;;;;;;5140695;27;20527;-57
2023/04/19 04:48:52;;;;;;;3.50;2.33;;;6.00;99.90;;;;;;5141290;27;20530;-54
2023/04/19 04:51:19;;;;;;;9.57;2.07;;;5.90;99.90;;;;;;5141482;27;20479;-53
2023/04/19 04:53:46;;;;;;;3.77;2.17;;;6.00;99.90;;;;;;5140812;27;20443;-57
2023/04/19 04:56:13;;;;;;;2.90;1.83;;;5.90;99.90;;;;;;5142224;27;20468;-57
2023/04/19 04:58:39;;;;;;;3.50;1.90;;;5.90;99.90;;;;;;5141154;27;20448;-57
2023/04/19 05:01:06;;;;;;;2.77;1.87;;;5.90;99.90;;;;;;5141339;27;21046;-58
2023/04/19 05:03:33;;;;;;;5.63;2.23;;;6.00;99.90;;;;;;5140495;27;20519;-57
2023/04/19 05:06:01;;;;;;;3.40;1.87;;;6.00;99.90;;;;;;5141359;27;20447;-56
2023/04/19 05:08:28;;;;;;;9.33;2.00;;;6.00;99.90;;;;;;5144091;27;20459;-54
2023/04/19 05:10:55;;;;;;;4.93;2.43;;;6.00;99.90;;;;;;5151908;27;20463;-56
2023/04/19 05:13:22;;;;;;;4.00;2.40;;;6.00;99.90;;;;;;5151563;27;20522;-57
2023/04/19 05:15:49;;;;;;;3.40;2.33;;;6.00;99.90;;;;;;5152249;27;20486;-57
2023/04/19 05:18:16;;;;;;;2.47;1.60;;;5.90;99.90;;;;;;5146337;27;20502;-56
2023/04/19 05:20:45;;;;;;;3.30;2.10;;;6.00;99.90;;;;;;5142558;27;20518;-60
2023/04/19 05:23:13;;;;;;;3.40;2.10;;;6.00;99.90;;;;;;5142117;27;20535;-57
2023/04/19 05:25:40;;;;;;;5.87;1.90;;;6.00;99.90;;;;;;5142241;27;20424;-57
2023/04/19 05:28:07;;;;;;;5.07;1.70;;;6.00;99.90;;;;;;5141450;27;20543;-57
2023/04/19 05:30:34;;;;;;;1.90;1.70;;;6.00;99.90;;;;;;5141637;28;20450;-57
2023/04/19 05:33:01;;;;;;;4.40;2.03;;;6.10;99.90;;;;;;5141104;28;20534;-59
2023/04/19 05:35:28;;;;;;;7.80;2.30;;;6.10;99.90;;;;;;5141261;28;20547;-59
2023/04/19 05:37:54;;;;;;;6.63;1.43;;;6.10;99.90;;;;;;5141490;28;20475;-56
2023/04/19 05:40:23;;;;;;;4.17;2.07;;;6.20;99.90;;;;;;5141564;28;20559;-58
2023/04/19 05:42:50;;;;;;;1.60;1.30;;;6.20;99.90;;;;;;5141148;28;20450;-58
2023/04/19 05:45:18;;;;;;;3.57;1.80;;;6.30;99.90;;;;;;5140935;28;20900;-58
2023/04/19 05:47:45;;;;;;;4.17;2.27;;;6.30;99.90;;;;;;5140922;28;20453;-55
2023/04/19 05:50:13;;;;;;;2.60;2.40;;;6.40;99.90;;;;;;5141485;28;20439;-54
2023/04/19 05:52:40;;;;;;;3.60;2.20;;;6.40;99.90;;;;;;5140827;28;20571;-56
2023/04/19 05:55:08;;;;;;;10.10;2.13;;;6.50;99.90;;;;;;5140723;28;20522;-54
2023/04/19 05:57:37;;;;;;;6.30;2.53;;;6.50;99.90;;;;;;5154633;28;20464;-56
2023/04/19 06:00:04;;;;;;;2.20;1.70;;;6.60;99.90;;;;;;5156776;28;20444;-57
2023/04/19 06:02:31;;;;;;;3.27;2.13;;;6.70;99.90;;;;;;5156659;28;20455;-58
2023/04/19 06:04:58;;;;;;;2.73;1.93;;;6.70;99.90;;;;;;5155872;28;20469;-61
2023/04/19 06:07:25;;;;;;;2.70;2.00;;;6.70;99.90;;;;;;5144460;28;20502;-59
2023/04/19 06:09:52;;;;;;;2.47;1.47;;;6.80;99.90;;;;;;5141342;27;20451;-60
2023/04/19 06:12:19;;;;;;;3.70;2.30;;;6.80;99.90;;;;;;5144614;27;20864;-56
2023/04/19 06:14:47;;;;;;;1.30;1.10;;;6.80;99.90;;;;;;5145097;27;20923;-60
2023/04/19 06:17:15;;;;;;;3.17;1.73;;;6.90;99.90;;;;;;5143976;27;20545;-58
2023/04/19 06:19:42;;;;;;;2.10;1.30;;;6.90;99.90;;;;;;5143919;27;20562;-58
2023/04/19 06:22:09;;;;;;;5.20;1.93;;;7.00;99.90;;;;;;5143992;27;20447;-56
2023/04/19 06:24:36;;;;;;;6.50;3.23;;;7.10;99.90;;;;;;5144334;27;20556;-58
2023/04/19 06:27:03;;;;;;;2.53;2.30;;;7.10;99.90;;;;;;5143824;27;20523;-59
2023/04/19 06:29:30;;;;;;;2.17;1.70;;;7.20;99.90;;;;;;5144060;27;20555;-58
2023/04/19 06:31:58;;;;;;;3.57;1.97;;;7.20;99.90;;;;;;5144217;27;20459;-56
2023/04/19 06:34:25;;;;;;;5.37;2.80;;;7.20;99.90;;;;;;5144025;27;20772;-58
2023/04/19 06:36:52;;;;;;;4.20;1.90;;;7.30;99.90;;;;;;5143250;27;20911;-58
2023/04/19 06:39:19;;;;;;;1.63;1.50;;;7.40;99.90;;;;;;5144127;27;20811;-58
2023/04/19 06:41:45;;;;;;;5.30;2.00;;;7.40;99.90;;;;;;5143048;27;20539;-57
2023/04/19 06:44:13;;;;;;;3.53;1.50;;;7.40;99.90;;;;;;5142792;27;20733;-61
2023/04/19 06:46:40;;;;;;;2.10;1.90;;;7.50;99.90;;;;;;5142897;27;20472;-59
2023/04/19 06:49:08;;;;;;;3.07;1.67;;;7.50;99.90;;;;;;5143255;27;20534;-59
2023/04/19 06:51:35;;;;;;;6.57;2.00;;;7.60;99.90;;;;;;5142940;27;20631;-58
2023/04/19 06:54:02;;;;;;;3.80;2.00;;;7.70;99.90;;;;;;5142636;27;20459;-58
2023/04/19 06:56:44;;;;;;;3.40;1.90;;;7.80;99.90;;;;;;5144065;27;20490;-58
2023/04/19 06:59:11;;;;;;;2.73;1.57;;;7.80;99.90;;;;;;5142641;27;20443;-57
2023/04/19 07:01:39;;;;;;;3.80;2.20;;;7.90;99.90;;;;;;5142149;27;20450;-56
2023/04/19 07:04:07;;;;;;;3.17;2.00;;;8.00;99.90;;;;;;5142150;27;20485;-58
2023/04/19 07:06:35;;;;;;;6.57;2.20;;;8.00;99.90;;;;;;5142415;27;20439;-59
2023/04/19 07:09:02;;;;;;;4.03;1.73;;;8.20;99.90;;;;;;5142134;27;20506;-56
2023/04/19 07:11:29;;;;;;;2.60;1.83;;;8.20;99.90;;;;;;5142146;27;20444;-55
2023/04/19 07:13:57;;;;;;;3.80;1.57;;;8.30;99.90;;;;;;5141747;27;20499;-58
2023/04/19 07:16:24;;;;;;;3.40;2.07;;;8.50;99.90;;;;;;5141557;27;20499;-57
2023/04/19 07:18:56;;;;;;;3.93;1.97;;;8.50;99.90;;;;;;5141961;27;20524;-55
2023/04/19 07:21:29;;;;;;;3.17;1.90;;;8.60;99.90;;;;;;5140896;27;20536;-56
2023/04/19 07:23:56;;;;;;;2.93;1.37;;;8.70;99.90;;;;;;5141081;27;20440;-56
2023/04/19 07:26:22;;;;;;;6.80;2.03;;;8.80;99.90;;;;;;5141253;27;20498;-58
2023/04/19 07:28:50;;;;;;;4.70;2.37;;;8.90;99.90;;;;;;5141197;27;20514;-58
2023/04/19 07:31:17;;;;;;;5.43;2.40;;;9.00;99.90;;;;;;5141220;27;20482;-59
2023/04/19 07:33:44;;;;;;;2.60;1.53;;;9.10;99.90;;;;;;5141952;27;20555;-59
2023/04/19 07:36:11;;;;;;;3.27;2.03;;;9.10;99.90;;;;;;5141641;27;20939;-57
2023/04/19 07:38:39;;;;;;;4.20;1.27;;;9.20;99.90;;;;;;5141889;27;20519;-58
2023/04/19 07:41:06;;;;;;;4.20;1.30;;;9.30;99.90;;;;;;5142148;27;20526;-55
2023/04/19 07:43:33;;;;;;;2.50;1.60;;;9.40;99.90;;;;;;5140951;27;20552;-60
2023/04/19 07:46:00;;;;;;;3.17;2.07;;;9.50;99.90;;;;;;5140633;27;20450;-59
2023/04/19 07:48:27;;;;;;;3.00;2.00;;;9.60;99.90;;;;;;5140672;27;20495;-58
2023/04/19 07:50:54;;;;;;;2.60;1.60;;;9.80;99.90;;;;;;5140543;27;20443;-54
2023/04/19 07:53:21;;;;;;;6.00;1.90;;;10.00;99.90;;;;;;5140075;27;20518;-57
2023/04/19 07:55:50;;;;;;;2.33;2.03;;;10.30;99.90;;;;;;5140115;27;20463;-58
2023/04/19 07:58:16;;;;;;;5.13;2.27;;;11.00;99.90;;;;;;5139834;27;20452;-61
2023/04/19 08:00:43;;;;;;;5.43;1.77;;;12.50;99.90;;;;;;5138472;27;20495;-59
2023/04/19 08:03:10;;;;;;;2.57;2.10;;;14.50;99.90;;;;;;5137502;27;20790;-59
2023/04/19 08:05:37;;;;;;;5.60;2.00;;;16.50;91.60;;;;;;5136965;27;20551;-60
2023/04/19 08:08:04;;;;;;;6.50;2.20;;;18.50;77.60;;;;;;5136884;27;20535;-58
2023/04/19 08:10:31;;;;;;;4.73;2.20;;;20.50;63.90;;;;;;5136759;27;20506;-58
2023/04/19 08:12:59;;;;;;;6.00;3.00;;;22.00;55.60;;;;;;5136606;27;20546;-60
2023/04/19 08:15:26;;;;;;;3.73;2.27;;;22.90;51.50;;;;;;5137072;27;20440;-59
2023/04/19 08:17:53;;;;;;;5.07;2.90;;;23.50;48.10;;;;;;5136858;27;20447;-60
2023/04/19 08:20:22;;;;;;;3.27;2.13;;;24.20;46.50;;;;;;5136524;27;20491;-58
2023/04/19 08:22:48;;;;;;;3.37;2.47;;;24.80;45.40;;;;;;5136341;27;20475;-58
2023/04/19 08:25:15;;;;;;;3.60;2.67;;;24.90;44.10;;;;;;5136428;27;20532;-59
2023/04/19 08:27:42;;;;;;;3.53;2.30;;;25.20;41.90;;;;;;5136677;27;20459;-59
2023/04/19 08:30:11;;;;;;;5.60;2.50;;;24.90;40.60;;;;;;5136328;27;20449;-58
2023/04/19 08:32:38;;;;;;;6.20;2.63;;;24.90;42.00;;;;;;5135796;27;20831;-59
2023/04/19 08:35:07;;;;;;;4.50;2.23;;;24.50;40.70;;;;;;5136347;27;20745;-59
2023/04/19 08:37:34;;;;;;;3.20;2.17;;;24.10;40.80;;;;;;5136567;27;20465;-60
2023/04/19 08:40:01;;;;;;;7.67;2.50;;;23.40;41.30;;;;;;5136993;27;20483;-58
2023/04/19 08:42:28;;;;;;;4.37;2.73;;;22.60;42.20;;;;;;5136512;27;20530;-60
2023/04/19 08:44:56;;;;;;;4.40;2.77;;;22.50;43.50;;;;;;5136272;27;20477;-59
2023/04/19 08:47:25;;;;;;;3.80;2.40;;;21.80;43.60;;;;;;5136124;27;20452;-59
2023/04/19 08:49:54;;;;;;;4.60;2.70;;;21.90;44.40;;;;;;5135878;27;20558;-61
2023/04/19 08:52:21;;;;;;;4.73;2.70;;;21.90;44.60;;;;;;5135928;27;20479;-60
2023/04/19 08:54:48;;;;;;;4.13;2.80;;;22.00;44.30;;;;;;5136183;27;20475;-60
2023/04/19 08:57:15;;;;;;;3.20;2.60;;;22.40;44.30;;;;;;5135986;27;20519;-60
2023/04/19 08:59:44;;;;;;;3.97;2.60;;;23.00;43.60;;;;;;5136232;27;20498;-58
2023/04/19 09:02:11;;;;;;;4.73;2.70;;;23.30;43.40;;;;;;5136140;27;20555;-56
2023/04/19 09:04:39;;;;;;;4.50;2.63;;;23.00;42.60;;;;;;5136160;27;20435;-60
2023/04/19 09:07:26;;;;;;;4.43;2.90;;;22.10;42.70;;;;;;5136034;27;20567;-59
2023/04/19 09:10:06;;;;;;;4.53;2.50;;;21.50;43.70;;;;;;5136500;27;20479;-60
2023/04/19 09:12:33;;;;;;;3.40;2.20;;;20.90;44.60;;;;;;5135750;27;20471;-60
2023/04/19 09:15:02;;;;;;;5.13;2.90;;;21.20;44.80;;;;;;5135650;27;20483;-59
2023/04/19 09:17:29;;;;;;;3.40;2.30;;;21.60;44.10;;;;;;5135803;27;20471;-60
2023/04/19 09:19:58;;;;;;;2.80;2.50;;;21.60;43.90;;;;;;5135602;27;20472;-59
2023/04/19 09:22:26;;;;;;;2.00;1.80;;;21.90;43.40;;;;;;5135863;27;20826;-60
2023/04/19 09:24:53;;;;;;;8.50;2.70;;;22.20;42.80;;;;;;5135533;27;20968;-59
2023/04/19 09:27:27;;;;;;;3.40;2.60;;;22.50;42.40;;;;;;5135624;27;20868;-61
2023/04/19 09:29:54;;;;;;;3.83;3.00;;;22.80;42.10;;;;;;5135465;27;20554;-59
2023/04/19 09:32:21;;;;;;;5.00;2.23;;;22.20;42.40;;;;;;5136195;28;20529;-59
2023/04/19 09:34:53;;;;;;;5.20;2.73;;;20.90;42.80;;;;;;5136005;28;20498;-60
2023/04/19 09:37:21;;;;;;;2.83;2.47;;;19.70;44.70;;;;;;5142463;28;20436;-60
2023/04/19 09:39:48;;;;;;;3.70;2.23;;;18.80;45.90;;;;;;5142363;28;20456;-58
2023/04/19 09:42:16;;;;;;;6.93;2.73;;;18.30;47.10;;;;;;5138269;28;20496;-61
2023/04/19 09:44:55;;;;;;;6.93;3.10;;;18.70;47.60;;;;;;5139095;27;20919;-60
2023/04/19 09:47:23;;;;;;;3.63;2.00;;;19.80;47.80;;;;;;5141076;27;20488;-58
2023/04/19 09:50:05;;;;;;;3.57;2.60;;;20.80;45.90;;;;;;5140524;27;20450;-60
2023/04/19 09:52:34;;;;;;;5.13;2.67;;;21.80;44.90;;;;;;5140720;27;20467;-60
2023/04/19 09:55:03;;;;;;;3.53;3.00;;;22.50;43.00;;;;;;5140527;27;20590;-60
2023/04/19 09:57:30;;;;;;;5.50;3.37;;;22.00;42.70;;;;;;5140580;27;20467;-60
2023/04/19 09:59:59;;;;;;;5.57;3.23;;;20.80;43.70;;;;;;5140499;27;20443;-60
2023/04/19 10:02:31;;;;;;;9.83;3.20;;;19.40;45.60;;;;;;5140419;27;20774;-60
2023/04/19 10:04:59;;;;;;;3.83;3.30;;;18.50;47.20;;;;;;5140736;27;20424;-59
2023/04/19 10:07:27;;;;;;;2.90;2.50;;;18.80;47.60;;;;;;5140248;27;20490;-59
2023/04/19 10:09:57;;;;;;;7.90;3.70;;;19.40;47.90;;;;;;5140912;27;20460;-60
2023/04/19 10:12:26;;;;;;;5.57;3.03;;;20.40;46.60;;;;;;5139802;27;20754;-60
2023/04/19 10:14:55;;;;;;;5.90;2.73;;;21.00;45.80;;;;;;5139963;27;20490;-59
2023/04/19 10:17:23;;;;;;;7.53;3.50;;;21.40;46.10;;;;;;5140140;27;20450;-60
2023/04/19 10:19:52;;;;;;;11.00;2.70;;;21.80;44.50;;;;;;5139725;27;20468;-60
2023/04/19 10:22:19;;;;;;;4.13;2.63;;;22.00;44.50;;;;;;5139644;27;20534;-61
2023/04/19 10:25:12;;;;;;;7.47;3.07;;;21.80;44.00;;;;;;5139482;27;20474;-60
2023/04/19 10:27:40;;;;;;;4.10;3.10;;;20.60;45.10;;;;;;5139453;27;20458;-60
2023/04/19 10:30:17;;;;;;;5.63;2.20;;;20.30;45.70;;;;;;5139959;27;20455;-59
2023/04/19 10:32:46;;;;;;;3.30;2.73;;;20.20;46.20;;;;;;5139196;27;20451;-60
2023/04/19 10:35:18;;;;;;;6.10;2.67;;;20.50;47.10;;;;;;5139134;27;20946;-60
2023/04/19 10:38:05;;;;;;;12.43;3.87;;;20.60;45.70;;;;;;5139146;27;20530;-60
2023/04/19 10:40:55;;;;;;;5.77;2.73;;;19.90;46.20;;;;;;5139125;27;20458;-61
2023/04/19 10:43:23;;;;;;;7.13;3.33;;;19.10;47.80;;;;;;5132326;27;20469;-58
2023/04/19 10:45:50;;;;;;;3.87;2.90;;;19.10;48.50;;;;;;5139192;27;20516;-59
2023/04/19 10:48:37;;;;;;;8.93;3.20;;;19.30;47.80;;;;;;5139490;27;20470;-59
2023/04/19 10:51:10;;;;;;;6.83;3.23;;;19.00;47.40;;;;;;5138847;27;20959;-59
2023/04/19 10:53:51;;;;;;;6.47;3.30;;;18.60;47.60;;;;;;5138717;27;20478;-58
2023/04/19 10:56:22;;;;;;;4.60;3.20;;;18.00;48.30;;;;;;5138243;27;20515;-60
2023/04/19 10:59:23;;;;;;;6.80;3.10;;;18.00;50.00;;;;;;5138949;27;20494;-58
2023/04/19 11:01:53;;;;;;;7.80;3.67;;;18.00;50.00;;;;;;5138795;27;20443;-60
2023/04/19 11:04:22;;;;;;;3.27;2.90;;;17.90;49.40;;;;;;5139524;27;20492;-60
2023/04/19 11:07:01;;;;;;;3.93;3.40;;;17.80;50.00;;;;;;5138695;27;20973;-60
2023/04/19 11:09:29;;;;;;;3.47;3.00;;;17.60;50.80;;;;;;5139128;27;20966;-58
2023/04/19 11:12:01;;;;;;;5.47;3.43;;;17.50;50.70;;;;;;5138870;27;20885;-60
2023/04/19 11:14:31;;;;;;;3.03;2.20;;;17.40;50.80;;;;;;5138589;27;20464;-60
2023/04/19 11:16:58;;;;;;;6.40;2.70;;;17.10;52.20;;;;;;5138343;27;20443;-59
2023/04/19 11:19:25;;;;;;;15.13;4.17;;;16.90;52.40;;;;;;5139638;27;20838;-61
2023/04/19 11:21:52;;;;;;;8.97;3.43;;;16.70;52.90;;;;;;5139187;27;20830;-59
2023/04/19 11:24:19;;;;;;;6.23;3.50;;;16.70;53.40;;;;;;5138787;27;20478;-59
2023/04/19 11:26:47;;;;;;;5.10;4.60;;;16.70;53.00;;;;;;5138205;27;20475;-58
2023/04/19 11:29:15;;;;;;;4.60;2.37;;;16.50;53.20;;;;;;5138960;27;20440;-60
2023/04/19 11:31:46;;;;;;;6.43;2.40;;;16.30;53.80;;;;;;5138629;27;20555;-60
2023/04/19 11:34:13;;;;;;;3.40;3.10;;;16.20;55.10;;;;;;5138638;27;20487;-58
2023/04/19 11:36:48;;;;;;;4.90;3.00;;;16.00;55.20;;;;;;5138280;27;20527;-58
2023/04/19 11:39:15;;;;;;;5.30;3.37;;;15.70;54.80;;;;;;5138893;27;20511;-60
2023/04/19 11:41:42;;;;;;;3.67;2.67;;;15.60;55.60;;;;;;5138553;27;20527;-57
2023/04/19 11:44:19;;;;;;;7.07;2.60;;;15.50;56.00;;;;;;5139461;27;20464;-58
2023/04/19 11:46:58;;;;;;;8.63;3.43;;;15.40;56.30;;;;;;5139413;27;20484;-56
2023/04/19 11:49:26;;;;;;;4.30;2.40;;;15.40;55.50;;;;;;5138775;27;20472;-55
2023/04/19 11:51:56;;;;;;;3.00;2.40;;;15.20;56.30;;;;;;5138874;27;20538;-60
2023/04/19 11:54:24;;;;;;;7.43;3.10;;;15.10;56.20;;;;;;5139465;27;20483;-58
2023/04/19 11:57:03;;;;;;;3.17;2.80;;;14.80;56.50;;;;;;5139763;27;20443;-59
2023/04/19 11:59:33;;;;;;;5.03;2.63;;;14.60;57.00;;;;;;5139460;27;20472;-58
2023/04/19 12:02:08;;;;;;;5.33;2.60;;;14.50;57.20;;;;;;5139657;27;20463;-58
2023/04/19 12:04:35;;;;;;;10.63;2.90;;;14.50;58.30;;;;;;5139585;27;20941;-59
2023/04/19 12:07:03;;;;;;;3.50;2.20;;;14.40;57.50;;;;;;5138271;27;20519;-60
2023/04/19 12:09:30;;;;;;;3.83;2.13;;;14.50;58.50;;;;;;5139114;27;20474;-57
2023/04/19 12:11:57;;;;;;;5.17;3.60;;;14.60;58.70;;;;;;5138831;27;20943;-60
2023/04/19 12:14:25;;;;;;;6.17;2.67;;;14.80;57.30;;;;;;5139514;27;20531;-56
2023/04/19 12:17:10;;;;;;;3.87;2.57;;;14.90;57.60;;;;;;5138963;27;20522;-61
2023/04/19 12:19:43;;;;;;;5.43;2.50;;;15.10;57.40;;;;;;5139378;27;20456;-60
2023/04/19 12:22:15;;;;;;;4.70;2.67;;;15.10;57.60;;;;;;5139172;27;20658;-56
2023/04/19 12:24:42;;;;;;;5.73;2.70;;;15.20;56.50;;;;;;5139924;27;20706;-62
2023/04/19 12:27:10;;;;;;;5.80;3.17;;;15.10;56.20;;;;;;5139256;27;20451;-57
2023/04/19 12:29:38;;;;;;;4.67;2.67;;;15.10;56.90;;;;;;5139590;27;20436;-58
2023/04/19 12:32:06;;;;;;;5.30;2.60;;;15.00;58.20;;;;;;5138901;27;20776;-59
2023/04/19 12:34:34;;;;;;;6.10;3.43;;;14.90;57.90;;;;;;5138702;27;20559;-58
2023/04/19 12:37:03;;;;;;;5.70;3.07;;;14.90;57.70;;;;;;5138669;27;20447;-59
2023/04/19 12:39:29;;;;;;;4.70;2.13;;;15.00;57.90;;;;;;5138684;27;20475;-59
2023/04/19 12:41:56;;;;;;;3.70;2.70;;;15.10;57.50;;;;;;5138695;27;20482;-59
2023/04/19 12:44:23;;;;;;;4.03;2.47;;;15.10;58.00;;;;;;5138864;27;20466;-59
2023/04/19 12:46:50;;;;;;;4.43;2.27;;;15.10;58.30;;;;;;5138608;27;20543;-59
2023/04/19 12:49:19;;;;;;;4.63;3.70;;;15.10;57.50;;;;;;5138270;27;20447;-56
2023/04/19 12:51:47;;;;;;;8.97;3.00;;;15.20;57.50;;;;;;5139093;27;20457;-58
2023/04/19 12:54:15;;;;;;;3.20;2.30;;;15.30;56.90;;;;;;5138421;27;20507;-58
2023/04/19 12:56:42;;;;;;;5.83;3.27;;;15.30;57.20;;;;;;5138305;27;20503;-59
2023/04/19 12:59:10;;;;;;;3.87;2.93;;;15.20;57.70;;;;;;5137608;27;20472;-60